sensor_id;sensor_type;location;lat;lon;timestamp;pressure;altitude;pressure_sealevel;temperature;humidity
7376;BME280;3728;42.266;24.944;2024-03-08T00:00:14;99762.53;;;8.55;100.00
7376;BME280;3728;42.266;24.944;2024-03-08T00:02:46;99766.63;;;8.61;100.00
7376;BME280;3728;42.266;24.944;2024-03-08T00:05:14;99761.75;;;8.54;100.00
7376;BME280;3728;42.266;24.944;2024-03-08T00:07:42;99764.84;;;8.56;100.00
7376;BME280;3728;42.266;24.944;2024-03-08T00:10:12;99767.47;;;8.56;100.00
7376;BME280;3728;42.266;24.944;2024-03-08T00:12:42;99766.38;;;8.57;100.00
7376;BME280;3728;42.266;24.944;2024-03-08T00:15:15;99752.34;;;8.53;100.00
7376;BME280;3728;42.266;24.944;2024-03-08T00:17:45;99752.84;;;8.55;100.00
7376;BME280;3728;42.266;24.944;2024-03-08T00:20:15;99756.22;;;8.56;100.00
7376;BME280;3728;42.266;24.944;2024-03-08T00:22:46;99744.09;;;8.65;100.00
7376;BME280;3728;42.266;24.944;2024-03-08T00:25:14;99745.66;;;8.66;100.00
7376;BME280;3728;42.266;24.944;2024-03-08T00:27:43;99741.28;;;8.61;100.00
7376;BME280;3728;42.266;24.944;2024-03-08T00:30:10;99737.41;;;8.59;100.00
7376;BME280;3728;42.266;24.944;2024-03-08T00:32:40;99748.91;;;8.58;100.00
7376;BME280;3728;42.266;24.944;2024-03-08T00:35:08;99739.03;;;8.55;100.00
7376;BME280;3728;42.266;24.944;2024-03-08T00:37:36;99746.28;;;8.58;100.00
7376;BME280;3728;42.266;24.944;2024-03-08T00:40:04;99736.19;;;8.51;100.00
7376;BME280;3728;42.266;24.944;2024-03-08T00:42:34;99746.50;;;8.61;100.00
7376;BME280;3728;42.266;24.944;2024-03-08T00:45:01;99743.41;;;8.59;100.00
7376;BME280;3728;42.266;24.944;2024-03-08T00:47:29;99745.19;;;8.64;100.00
7376;BME280;3728;42.266;24.944;2024-03-08T00:49:57;99746.34;;;8.53;100.00
7376;BME280;3728;42.266;24.944;2024-03-08T00:52:25;99746.56;;;8.56;100.00
7376;BME280;3728;42.266;24.944;2024-03-08T00:54:52;99750.56;;;8.49;100.00
7376;BME280;3728;42.266;24.944;2024-03-08T00:57:19;99742.25;;;8.47;100.00
7376;BME280;3728;42.266;24.944;2024-03-08T00:59:48;99737.09;;;8.42;100.00
7376;BME280;3728;42.266;24.944;2024-03-08T01:02:16;99734.63;;;8.50;100.00
7376;BME280;3728;42.266;24.944;2024-03-08T01:04:45;99743.72;;;8.53;100.00
7376;BME280;3728;42.266;24.944;2024-03-08T01:07:14;99750.94;;;8.61;100.00
7376;BME280;3728;42.266;24.944;2024-03-08T01:09:42;99746.78;;;8.60;100.00
7376;BME280;3728;42.266;24.944;2024-03-08T01:12:10;99746.56;;;8.56;100.00
7376;BME280;3728;42.266;24.944;2024-03-08T01:14:38;99746.28;;;8.58;100.00
7376;BME280;3728;42.266;24.944;2024-03-08T01:17:05;99742.56;;;8.64;100.00
7376;BME280;3728;42.266;24.944;2024-03-08T01:19:33;99744.59;;;8.67;100.00
7376;BME280;3728;42.266;24.944;2024-03-08T01:22:01;99741.78;;;8.82;100.00
7376;BME280;3728;42.266;24.944;2024-03-08T01:24:28;99743.13;;;8.79;100.00
7376;BME280;3728;42.266;24.944;2024-03-08T01:26:56;99734.31;;;8.75;100.00
7376;BME280;3728;42.266;24.944;2024-03-08T01:29:23;99734.09;;;8.72;100.00
7376;BME280;3728;42.266;24.944;2024-03-08T01:31:51;99733.59;;;8.70;100.00
7376;BME280;3728;42.266;24.944;2024-03-08T01:34:19;99737.00;;;8.70;100.00
7376;BME280;3728;42.266;24.944;2024-03-08T01:36:47;99737.72;;;8.76;100.00
7376;BME280;3728;42.266;24.944;2024-03-08T01:39:15;99743.13;;;8.79;100.00
7376;BME280;3728;42.266;24.944;2024-03-08T01:41:43;99741.31;;;8.80;100.00
7376;BME280;3728;42.266;24.944;2024-03-08T01:44:11;99741.16;;;8.71;100.00
7376;BME280;3728;42.266;24.944;2024-03-08T01:46:42;99741.28;;;8.61;100.00
7376;BME280;3728;42.266;24.944;2024-03-08T01:49:12;99739.72;;;8.60;100.00
7376;BME280;3728;42.266;24.944;2024-03-08T01:51:41;99742.75;;;8.67;100.00
7376;BME280;3728;42.266;24.944;2024-03-08T01:54:10;99748.78;;;8.86;100.00
7376;BME280;3728;42.266;24.944;2024-03-08T01:56:39;99748.00;;;8.86;100.00
7376;BME280;3728;42.266;24.944;2024-03-08T01:59:07;99745.53;;;8.94;100.00
7376;BME280;3728;42.266;24.944;2024-03-08T02:01:35;99747.09;;;8.95;100.00
7376;BME280;3728;42.266;24.944;2024-03-08T02:04:03;99741.50;;;9.02;100.00
7376;BME280;3728;42.266;24.944;2024-03-08T02:06:32;99733.81;;;9.11;100.00
7376;BME280;3728;42.266;24.944;2024-03-08T02:09:00;99740.25;;;9.00;100.00
7376;BME280;3728;42.266;24.944;2024-03-08T02:11:36;99738.69;;;8.99;100.00
7376;BME280;3728;42.266;24.944;2024-03-08T02:14:04;99739.31;;;8.90;100.00
7376;BME280;3728;42.266;24.944;2024-03-08T02:16:33;99747.13;;;9.28;100.00
7376;BME280;3728;42.266;24.944;2024-03-08T02:19:01;99747.31;;;9.63;100.00
7376;BME280;3728;42.266;24.944;2024-03-08T02:21:28;99745.78;;;9.30;100.00
7376;BME280;3728;42.266;24.944;2024-03-08T02:23:57;99747.03;;;9.33;100.00
7376;BME280;3728;42.266;24.944;2024-03-08T02:26:25;99747.63;;;9.30;100.00
7376;BME280;3728;42.266;24.944;2024-03-08T02:28:53;99748.09;;;9.00;100.00
7376;BME280;3728;42.266;24.944;2024-03-08T02:31:21;99748.91;;;8.76;100.00
7376;BME280;3728;42.266;24.944;2024-03-08T02:33:48;99749.97;;;8.75;100.00
7376;BME280;3728;42.266;24.944;2024-03-08T02:36:16;99744.41;;;8.63;100.00
7376;BME280;3728;42.266;24.944;2024-03-08T02:38:43;99749.25;;;8.70;100.00
7376;BME280;3728;42.266;24.944;2024-03-08T02:41:11;99750.81;;;8.52;100.00
7376;BME280;3728;42.266;24.944;2024-03-08T02:43:38;99748.47;;;8.51;100.00
7376;BME280;3728;42.266;24.944;2024-03-08T02:46:06;99750.59;;;8.67;100.00
7376;BME280;3728;42.266;24.944;2024-03-08T02:48:33;99746.13;;;8.49;100.00
7376;BME280;3728;42.266;24.944;2024-03-08T02:51:02;99750.09;;;8.47;100.00
7376;BME280;3728;42.266;24.944;2024-03-08T02:53:30;99743.50;;;8.31;100.00
7376;BME280;3728;42.266;24.944;2024-03-08T02:55:57;99742.69;;;8.54;100.00
7376;BME280;3728;42.266;24.944;2024-03-08T02:58:25;99747.59;;;8.37;100.00
7376;BME280;3728;42.266;24.944;2024-03-08T03:00:53;99745.31;;;8.30;100.00
7376;BME280;3728;42.266;24.944;2024-03-08T03:03:21;99747.31;;;8.38;100.00
7376;BME280;3728;42.266;24.944;2024-03-08T03:05:49;99751.34;;;8.49;100.00
7376;BME280;3728;42.266;24.944;2024-03-08T03:08:16;99754.41;;;8.56;100.00
7376;BME280;3728;42.266;24.944;2024-03-08T03:10:44;99747.19;;;8.48;100.00
7376;BME280;3728;42.266;24.944;2024-03-08T03:13:13;99752.41;;;8.48;100.00
7376;BME280;3728;42.266;24.944;2024-03-08T03:15:43;99755.81;;;8.67;100.00
7376;BME280;3728;42.266;24.944;2024-03-08T03:18:10;99757.75;;;8.99;100.00
7376;BME280;3728;42.266;24.944;2024-03-08T03:20:38;99757.34;;;8.92;100.00
7376;BME280;3728;42.266;24.944;2024-03-08T03:23:10;99754.13;;;8.76;100.00
7376;BME280;3728;42.266;24.944;2024-03-08T03:25:41;99764.84;;;8.56;100.00
7376;BME280;3728;42.266;24.944;2024-03-08T03:28:09;99749.16;;;8.38;100.00
7376;BME280;3728;42.266;24.944;2024-03-08T03:30:40;99750.09;;;8.47;100.00
7376;BME280;3728;42.266;24.944;2024-03-08T03:33:08;99764.34;;;8.54;100.00
7376;BME280;3728;42.266;24.944;2024-03-08T03:35:36;99760.84;;;8.64;100.00
7376;BME280;3728;42.266;24.944;2024-03-08T03:38:05;99765.34;;;8.58;100.00
7376;BME280;3728;42.266;24.944;2024-03-08T03:40:39;99767.03;;;8.49;100.00
7376;BME280;3728;42.266;24.944;2024-03-08T03:43:08;99766.59;;;8.42;100.00
7376;BME280;3728;42.266;24.944;2024-03-08T03:45:36;99771.41;;;8.30;100.00
7376;BME280;3728;42.266;24.944;2024-03-08T03:48:06;99765.06;;;8.36;100.00
7376;BME280;3728;42.266;24.944;2024-03-08T03:50:36;99769.53;;;8.36;100.00
7376;BME280;3728;42.266;24.944;2024-03-08T03:53:04;99779.34;;;8.44;100.00
7376;BME280;3728;42.266;24.944;2024-03-08T03:55:36;99776.31;;;8.55;100.00
7376;BME280;3728;42.266;24.944;2024-03-08T03:58:07;99782.72;;;8.44;100.00
7376;BME280;3728;42.266;24.944;2024-03-08T04:00:34;99781.47;;;8.42;100.00
7376;BME280;3728;42.266;24.944;2024-03-08T04:03:02;99782.19;;;8.47;100.00
7376;BME280;3728;42.266;24.944;2024-03-08T04:05:30;99779.97;;;8.59;100.00
7376;BME280;3728;42.266;24.944;2024-03-08T04:07:59;99787.63;;;8.69;100.00
7376;BME280;3728;42.266;24.944;2024-03-08T04:10:27;99795.22;;;8.71;100.00
7376;BME280;3728;42.266;24.944;2024-03-08T04:12:55;99784.66;;;8.57;100.00
7376;BME280;3728;42.266;24.944;2024-03-08T04:15:24;99782.03;;;8.57;100.00
7376;BME280;3728;42.266;24.944;2024-03-08T04:17:52;99789.22;;;8.47;100.00
7376;BME280;3728;42.266;24.944;2024-03-08T04:20:21;99794.88;;;8.77;100.00
7376;BME280;3728;42.266;24.944;2024-03-08T04:22:50;99795.91;;;8.76;100.00
7376;BME280;3728;42.266;24.944;2024-03-08T04:25:18;99790.16;;;8.56;100.00
7376;BME280;3728;42.266;24.944;2024-03-08T04:27:47;99787.06;;;8.54;100.00
7376;BME280;3728;42.266;24.944;2024-03-08T04:30:16;99789.06;;;8.62;100.00
7376;BME280;3728;42.266;24.944;2024-03-08T04:32:47;99790.34;;;8.64;100.00
7376;BME280;3728;42.266;24.944;2024-03-08T04:35:14;99791.56;;;8.48;100.00
7376;BME280;3728;42.266;24.944;2024-03-08T04:37:42;99793.13;;;8.49;100.00
7376;BME280;3728;42.266;24.944;2024-03-08T04:40:09;99790.03;;;8.18;100.00
7376;BME280;3728;42.266;24.944;2024-03-08T04:42:39;99793.38;;;8.24;100.00
7376;BME280;3728;42.266;24.944;2024-03-08T04:45:08;99796.72;;;8.30;100.00
7376;BME280;3728;42.266;24.944;2024-03-08T04:47:38;99805.00;;;8.37;100.00
7376;BME280;3728;42.266;24.944;2024-03-08T04:50:06;99799.13;;;8.26;100.00
7376;BME280;3728;42.266;24.944;2024-03-08T04:52:38;99804.44;;;8.40;100.00
7376;BME280;3728;42.266;24.944;2024-03-08T04:55:06;99807.94;;;8.30;100.00
7376;BME280;3728;42.266;24.944;2024-03-08T04:57:34;99806.94;;;8.26;100.00
7376;BME280;3728;42.266;24.944;2024-03-08T05:00:03;99804.78;;;8.33;100.00
7376;BME280;3728;42.266;24.944;2024-03-08T05:02:38;99806.19;;;8.20;100.00
7376;BME280;3728;42.266;24.944;2024-03-08T05:05:06;99807.38;;;8.04;100.00
7376;BME280;3728;42.266;24.944;2024-03-08T05:07:33;99803.22;;;8.03;100.00
7376;BME280;3728;42.266;24.944;2024-03-08T05:10:02;99814.22;;;8.00;100.00
7376;BME280;3728;42.266;24.944;2024-03-08T05:12:29;99811.03;;;8.03;100.00
7376;BME280;3728;42.266;24.944;2024-03-08T05:14:58;99812.53;;;8.14;100.00
7376;BME280;3728;42.266;24.944;2024-03-08T05:17:25;99810.66;;;8.15;100.00
7376;BME280;3728;42.266;24.944;2024-03-08T05:19:53;99818.88;;;8.32;100.00
7376;BME280;3728;42.266;24.944;2024-03-08T05:22:20;99825.00;;;8.17;100.00
7376;BME280;3728;42.266;24.944;2024-03-08T05:24:48;99822.44;;;8.12;100.00
7376;BME280;3728;42.266;24.944;2024-03-08T05:27:15;99829.53;;;8.07;100.00
7376;BME280;3728;42.266;24.944;2024-03-08T05:29:43;99834.06;;;7.96;100.00
7376;BME280;3728;42.266;24.944;2024-03-08T05:32:10;99836.63;;;8.01;100.00
7376;BME280;3728;42.266;24.944;2024-03-08T05:34:38;99827.69;;;8.36;100.00
7376;BME280;3728;42.266;24.944;2024-03-08T05:37:06;99838.28;;;8.50;100.00
7376;BME280;3728;42.266;24.944;2024-03-08T05:39:33;99844.72;;;8.34;100.00
7376;BME280;3728;42.266;24.944;2024-03-08T05:42:01;99843.53;;;8.16;100.00
7376;BME280;3728;42.266;24.944;2024-03-08T05:44:28;99846.88;;;8.21;100.00
7376;BME280;3728;42.266;24.944;2024-03-08T05:46:57;99856.75;;;8.77;100.00
7376;BME280;3728;42.266;24.944;2024-03-08T05:49:25;99850.69;;;8.58;100.00
7376;BME280;3728;42.266;24.944;2024-03-08T05:51:52;99859.84;;;8.55;100.00
7376;BME280;3728;42.266;24.944;2024-03-08T05:54:21;99857.16;;;8.65;100.00
7376;BME280;3728;42.266;24.944;2024-03-08T05:56:52;99858.75;;;8.38;100.00
7376;BME280;3728;42.266;24.944;2024-03-08T05:59:21;99871.66;;;8.24;100.00
7376;BME280;3728;42.266;24.944;2024-03-08T06:01:50;99865.22;;;8.11;100.00
7376;BME280;3728;42.266;24.944;2024-03-08T06:04:18;99862.91;;;8.39;100.00
7376;BME280;3728;42.266;24.944;2024-03-08T06:06:45;99869.75;;;8.58;100.00
7376;BME280;3728;42.266;24.944;2024-03-08T06:09:18;99870.28;;;8.79;98.99
7376;BME280;3728;42.266;24.944;2024-03-08T06:11:55;99878.34;;;8.35;100.00
7376;BME280;3728;42.266;24.944;2024-03-08T06:14:24;99877.13;;;8.22;100.00
7376;BME280;3728;42.266;24.944;2024-03-08T06:16:51;99875.06;;;8.48;100.00
7376;BME280;3728;42.266;24.944;2024-03-08T06:19:19;99889.38;;;8.27;100.00
7376;BME280;3728;42.266;24.944;2024-03-08T06:21:47;99878.56;;;8.39;100.00
7376;BME280;3728;42.266;24.944;2024-03-08T06:24:15;99877.59;;;8.30;100.00
7376;BME280;3728;42.266;24.944;2024-03-08T06:26:47;99884.16;;;8.27;100.00
7376;BME280;3728;42.266;24.944;2024-03-08T06:29:15;99884.94;;;8.27;100.00
7376;BME280;3728;42.266;24.944;2024-03-08T06:31:43;99890.31;;;8.36;100.00
7376;BME280;3728;42.266;24.944;2024-03-08T06:34:12;99882.03;;;8.58;100.00
7376;BME280;3728;42.266;24.944;2024-03-08T06:36:43;99890.13;;;8.56;100.00
7376;BME280;3728;42.266;24.944;2024-03-08T06:39:12;99896.16;;;8.80;100.00
7376;BME280;3728;42.266;24.944;2024-03-08T06:41:40;99891.38;;;8.64;100.00
7376;BME280;3728;42.266;24.944;2024-03-08T06:44:07;99890.88;;;8.62;100.00
7376;BME280;3728;42.266;24.944;2024-03-08T06:46:35;99891.78;;;8.76;99.48
7376;BME280;3728;42.266;24.944;2024-03-08T06:49:05;99892.16;;;8.64;100.00
7376;BME280;3728;42.266;24.944;2024-03-08T06:51:33;99905.63;;;8.48;100.00
7376;BME280;3728;42.266;24.944;2024-03-08T06:54:01;99893.97;;;8.64;100.00
7376;BME280;3728;42.266;24.944;2024-03-08T06:56:35;99902.56;;;8.41;100.00
7376;BME280;3728;42.266;24.944;2024-03-08T06:59:03;99899.50;;;8.57;100.00
7376;BME280;3728;42.266;24.944;2024-03-08T07:01:31;99902.31;;;8.66;100.00
7376;BME280;3728;42.266;24.944;2024-03-08T07:03:58;99900.25;;;8.34;100.00
7376;BME280;3728;42.266;24.944;2024-03-08T07:06:28;99911.81;;;8.23;100.00
7376;BME280;3728;42.266;24.944;2024-03-08T07:08:56;99911.53;;;8.24;100.00
7376;BME280;3728;42.266;24.944;2024-03-08T07:11:23;99912.78;;;8.37;100.00
7376;BME280;3728;42.266;24.944;2024-03-08T07:13:51;99906.88;;;8.27;100.00
7376;BME280;3728;42.266;24.944;2024-03-08T07:16:18;99917.56;;;8.54;100.00
7376;BME280;3728;42.266;24.944;2024-03-08T07:18:48;99915.00;;;8.49;100.00
7376;BME280;3728;42.266;24.944;2024-03-08T07:21:20;99919.41;;;8.53;100.00
7376;BME280;3728;42.266;24.944;2024-03-08T07:23:47;99918.47;;;8.68;100.00
7376;BME280;3728;42.266;24.944;2024-03-08T07:26:27;99922.47;;;8.60;100.00
7376;BME280;3728;42.266;24.944;2024-03-08T07:28:55;99925.84;;;8.61;100.00
7376;BME280;3728;42.266;24.944;2024-03-08T07:31:22;99918.81;;;8.33;100.00
7376;BME280;3728;42.266;24.944;2024-03-08T07:34:01;99929.28;;;8.56;100.00
7376;BME280;3728;42.266;24.944;2024-03-08T07:36:30;99928.31;;;8.76;100.00
7376;BME280;3728;42.266;24.944;2024-03-08T07:38:57;99926.03;;;8.69;100.00
7376;BME280;3728;42.266;24.944;2024-03-08T07:41:25;99938.19;;;8.79;100.00
7376;BME280;3728;42.266;24.944;2024-03-08T07:43:52;99940.16;;;8.68;100.00
7376;BME280;3728;42.266;24.944;2024-03-08T07:46:20;99928.84;;;8.49;100.00
7376;BME280;3728;42.266;24.944;2024-03-08T07:48:47;99935.00;;;8.58;100.00
7376;BME280;3728;42.266;24.944;2024-03-08T07:51:16;99936.38;;;8.79;99.89
7376;BME280;3728;42.266;24.944;2024-03-08T07:53:44;99942.25;;;8.66;98.98
7376;BME280;3728;42.266;24.944;2024-03-08T07:56:14;99949.63;;;8.59;100.00
7376;BME280;3728;42.266;24.944;2024-03-08T07:58:47;99944.63;;;8.63;99.57
7376;BME280;3728;42.266;24.944;2024-03-08T08:01:19;99951.25;;;8.79;99.80
7376;BME280;3728;42.266;24.944;2024-03-08T08:03:48;99947.81;;;8.83;99.37
7376;BME280;3728;42.266;24.944;2024-03-08T08:06:17;99952.47;;;8.86;98.55
7376;BME280;3728;42.266;24.944;2024-03-08T08:08:46;99953.22;;;9.16;96.28
7376;BME280;3728;42.266;24.944;2024-03-08T08:11:14;99951.88;;;9.18;95.01
7376;BME280;3728;42.266;24.944;2024-03-08T08:13:43;99950.88;;;9.14;95.94
7376;BME280;3728;42.266;24.944;2024-03-08T08:16:10;99954.75;;;9.17;95.87
7376;BME280;3728;42.266;24.944;2024-03-08T08:18:39;99954.50;;;8.94;96.55
7376;BME280;3728;42.266;24.944;2024-03-08T08:21:09;99958.88;;;9.23;92.77
7376;BME280;3728;42.266;24.944;2024-03-08T08:23:38;99952.09;;;9.22;92.75
7376;BME280;3728;42.266;24.944;2024-03-08T08:26:06;99958.50;;;9.11;92.28
7376;BME280;3728;42.266;24.944;2024-03-08T08:28:34;99950.31;;;8.93;95.46
7376;BME280;3728;42.266;24.944;2024-03-08T08:31:03;99956.09;;;9.14;94.25
7376;BME280;3728;42.266;24.944;2024-03-08T08:33:32;99954.06;;;9.11;92.70
7376;BME280;3728;42.266;24.944;2024-03-08T08:36:02;99952.34;;;9.02;93.57
7376;BME280;3728;42.266;24.944;2024-03-08T08:38:30;99954.34;;;9.28;90.96
7376;BME280;3728;42.266;24.944;2024-03-08T08:40:59;99955.03;;;9.15;93.27
7376;BME280;3728;42.266;24.944;2024-03-08T08:43:27;99961.22;;;9.43;92.07
7376;BME280;3728;42.266;24.944;2024-03-08T08:45:54;99958.06;;;9.46;90.51
7376;BME280;3728;42.266;24.944;2024-03-08T08:48:23;99968.53;;;9.46;89.31
7376;BME280;3728;42.266;24.944;2024-03-08T08:50:51;99958.44;;;9.16;91.65
7376;BME280;3728;42.266;24.944;2024-03-08T08:53:19;99959.78;;;9.13;91.77
7376;BME280;3728;42.266;24.944;2024-03-08T08:55:46;99961.16;;;9.06;90.26
7376;BME280;3728;42.266;24.944;2024-03-08T08:58:13;99964.31;;;9.03;91.71
7376;BME280;3728;42.266;24.944;2024-03-08T09:00:41;99969.50;;;9.08;92.57
7376;BME280;3728;42.266;24.944;2024-03-08T09:03:11;99963.72;;;9.11;91.33
7376;BME280;3728;42.266;24.944;2024-03-08T09:05:39;99962.72;;;9.07;92.85
7376;BME280;3728;42.266;24.944;2024-03-08T09:08:11;99968.75;;;9.02;92.99
7376;BME280;3728;42.266;24.944;2024-03-08T09:10:39;99961.25;;;9.19;93.32
7376;BME280;3728;42.266;24.944;2024-03-08T09:13:07;99961.09;;;9.11;90.88
7376;BME280;3728;42.266;24.944;2024-03-08T09:15:43;99967.47;;;9.23;90.86
7376;BME280;3728;42.266;24.944;2024-03-08T09:18:11;99966.84;;;9.13;91.73
7376;BME280;3728;42.266;24.944;2024-03-08T09:20:39;99964.72;;;9.15;92.35
7376;BME280;3728;42.266;24.944;2024-03-08T09:23:08;99965.09;;;9.27;92.23
7376;BME280;3728;42.266;24.944;2024-03-08T09:25:35;99969.63;;;9.40;89.80
7376;BME280;3728;42.266;24.944;2024-03-08T09:28:03;99969.56;;;9.45;88.11
7376;BME280;3728;42.266;24.944;2024-03-08T09:30:33;99967.16;;;9.30;90.23
7376;BME280;3728;42.266;24.944;2024-03-08T09:33:01;99969.91;;;9.38;89.94
7376;BME280;3728;42.266;24.944;2024-03-08T09:35:32;99964.81;;;9.28;92.26
7376;BME280;3728;42.266;24.944;2024-03-08T09:38:00;99974.84;;;9.40;91.49
7376;BME280;3728;42.266;24.944;2024-03-08T09:40:27;99970.75;;;9.34;92.85
7376;BME280;3728;42.266;24.944;2024-03-08T09:42:55;99981.31;;;9.66;89.29
7376;BME280;3728;42.266;24.944;2024-03-08T09:45:24;99977.59;;;9.91;88.38
7376;BME280;3728;42.266;24.944;2024-03-08T09:47:53;99973.34;;;9.76;90.04
7376;BME280;3728;42.266;24.944;2024-03-08T09:50:21;99974.06;;;9.82;91.59
7376;BME280;3728;42.266;24.944;2024-03-08T09:52:49;99979.63;;;9.75;91.44
7376;BME280;3728;42.266;24.944;2024-03-08T09:55:20;99974.81;;;9.82;89.10
7376;BME280;3728;42.266;24.944;2024-03-08T09:57:51;99968.41;;;9.75;92.97
7376;BME280;3728;42.266;24.944;2024-03-08T10:00:37;99970.66;;;9.81;92.67
7376;BME280;3728;42.266;24.944;2024-03-08T10:03:05;99974.06;;;10.19;91.76
7376;BME280;3728;42.266;24.944;2024-03-08T10:05:33;99969.34;;;10.35;88.88
7376;BME280;3728;42.266;24.944;2024-03-08T10:08:01;99965.84;;;10.25;89.22
7376;BME280;3728;42.266;24.944;2024-03-08T10:10:29;99974.00;;;10.24;87.87
7376;BME280;3728;42.266;24.944;2024-03-08T10:12:57;99968.47;;;10.25;89.20
7376;BME280;3728;42.266;24.944;2024-03-08T10:15:27;99965.88;;;10.39;88.75
7376;BME280;3728;42.266;24.944;2024-03-08T10:18:05;99968.97;;;10.41;86.96
7376;BME280;3728;42.266;24.944;2024-03-08T10:20:33;99966.72;;;10.35;88.84
7376;BME280;3728;42.266;24.944;2024-03-08T10:23:04;99971.41;;;10.38;88.35
7376;BME280;3728;42.266;24.944;2024-03-08T10:25:38;99966.72;;;10.35;88.16
7376;BME280;3728;42.266;24.944;2024-03-08T10:28:08;99965.53;;;10.27;89.36
7376;BME280;3728;42.266;24.944;2024-03-08T10:30:36;99968.41;;;10.44;88.27
7376;BME280;3728;42.266;24.944;2024-03-08T10:33:05;99964.22;;;10.75;85.98
7376;BME280;3728;42.266;24.944;2024-03-08T10:35:34;99968.25;;;10.68;85.52
7376;BME280;3728;42.266;24.944;2024-03-08T10:38:04;99955.00;;;10.78;84.54
7376;BME280;3728;42.266;24.944;2024-03-08T10:40:35;99967.31;;;10.91;85.63
7376;BME280;3728;42.266;24.944;2024-03-08T10:43:15;99961.72;;;11.11;81.23
7376;BME280;3728;42.266;24.944;2024-03-08T10:45:47;99961.69;;;10.97;82.39
7376;BME280;3728;42.266;24.944;2024-03-08T10:50:50;99954.59;;;10.98;85.34
7376;BME280;3728;42.266;24.944;2024-03-08T10:53:20;99954.50;;;11.03;84.52
7376;BME280;3728;42.266;24.944;2024-03-08T10:55:49;99945.22;;;10.97;83.84
7376;BME280;3728;42.266;24.944;2024-03-08T10:58:27;99944.13;;;11.25;82.37
7376;BME280;3728;42.266;24.944;2024-03-08T11:00:56;99949.13;;;11.35;81.30
7376;BME280;3728;42.266;24.944;2024-03-08T11:09:00;99944.59;;;11.27;82.27
7376;BME280;3728;42.266;24.944;2024-03-08T11:11:31;99954.28;;;11.68;81.13
7376;BME280;3728;42.266;24.944;2024-03-08T11:14:03;99935.50;;;11.60;79.30
7376;BME280;3728;42.266;24.944;2024-03-08T11:21:38;99937.94;;;11.93;77.83
7376;BME280;3728;42.266;24.944;2024-03-08T11:24:08;99932.75;;;11.79;80.48
7376;BME280;3728;42.266;24.944;2024-03-08T11:26:39;99927.44;;;11.93;76.48
7376;BME280;3728;42.266;24.944;2024-03-08T11:29:38;99935.25;;;11.48;78.60
7376;BME280;3728;42.266;24.944;2024-03-08T11:32:08;99935.50;;;11.60;78.55
7376;BME280;3728;42.266;24.944;2024-03-08T11:34:40;99931.19;;;11.78;79.41
7376;BME280;3728;42.266;24.944;2024-03-08T11:37:20;99925.31;;;11.95;78.10
7376;BME280;3728;42.266;24.944;2024-03-08T11:39:52;99930.38;;;11.91;77.09
7376;BME280;3728;42.266;24.944;2024-03-08T11:42:25;99929.41;;;12.31;73.15
7376;BME280;3728;42.266;24.944;2024-03-08T11:44:53;99934.66;;;12.31;74.69
7376;BME280;3728;42.266;24.944;2024-03-08T11:47:21;99934.34;;;12.33;75.12
7376;BME280;3728;42.266;24.944;2024-03-08T11:49:49;99920.75;;;12.09;77.31
7376;BME280;3728;42.266;24.944;2024-03-08T11:52:18;99923.16;;;11.97;78.33
7376;BME280;3728;42.266;24.944;2024-03-08T11:54:54;99928.00;;;12.03;77.22
7376;BME280;3728;42.266;24.944;2024-03-08T11:57:26;99922.75;;;12.03;74.93
7376;BME280;3728;42.266;24.944;2024-03-08T11:59:55;99925.06;;;11.83;76.72
7376;BME280;3728;42.266;24.944;2024-03-08T12:02:24;99924.09;;;11.79;78.87
7376;BME280;3728;42.266;24.944;2024-03-08T12:04:57;99926.47;;;12.11;75.64
7376;BME280;3728;42.266;24.944;2024-03-08T12:07:31;99926.66;;;11.92;77.45
7376;BME280;3728;42.266;24.944;2024-03-08T12:12:50;99926.97;;;12.13;75.69
7376;BME280;3728;42.266;24.944;2024-03-08T12:15:23;99918.69;;;11.97;77.22
7376;BME280;3728;42.266;24.944;2024-03-08T12:17:53;99917.06;;;11.88;76.99
7376;BME280;3728;42.266;24.944;2024-03-08T12:20:27;99921.16;;;11.80;77.06
7376;BME280;3728;42.266;24.944;2024-03-08T12:22:58;99917.66;;;12.07;76.46
7376;BME280;3728;42.266;24.944;2024-03-08T12:25:29;99912.66;;;11.97;77.34
7376;BME280;3728;42.266;24.944;2024-03-08T12:28:12;99909.78;;;11.85;78.29
7376;BME280;3728;42.266;24.944;2024-03-08T12:30:49;99913.59;;;12.23;75.69
7376;BME280;3728;42.266;24.944;2024-03-08T12:33:51;99899.44;;;12.32;75.00
7376;BME280;3728;42.266;24.944;2024-03-08T12:36:22;99909.53;;;11.95;76.65
7376;BME280;3728;42.266;24.944;2024-03-08T12:38:51;99910.75;;;11.89;76.33
7376;BME280;3728;42.266;24.944;2024-03-08T12:41:19;99907.47;;;12.05;77.32
7376;BME280;3728;42.266;24.944;2024-03-08T12:43:50;99905.09;;;11.95;76.34
7376;BME280;3728;42.266;24.944;2024-03-08T12:46:19;99906.88;;;11.86;77.88
7376;BME280;3728;42.266;24.944;2024-03-08T12:48:53;99905.00;;;12.09;76.78
7376;BME280;3728;42.266;24.944;2024-03-08T12:51:21;99898.53;;;11.84;77.49
7376;BME280;3728;42.266;24.944;2024-03-08T12:53:51;99902.81;;;12.02;77.10
7376;BME280;3728;42.266;24.944;2024-03-08T12:56:33;99905.50;;;11.89;77.67
7376;BME280;3728;42.266;24.944;2024-03-08T12:59:04;99902.56;;;12.12;75.81
7376;BME280;3728;42.266;24.944;2024-03-08T13:01:36;99899.69;;;12.22;75.85
7376;BME280;3728;42.266;24.944;2024-03-08T13:04:07;99899.53;;;12.50;74.80
7376;BME280;3728;42.266;24.944;2024-03-08T13:06:43;99896.09;;;12.41;74.44
7376;BME280;3728;42.266;24.944;2024-03-08T13:09:10;99896.69;;;12.15;76.41
7376;BME280;3728;42.266;24.944;2024-03-08T13:11:38;99890.13;;;11.96;78.34
7376;BME280;3728;42.266;24.944;2024-03-08T13:14:09;99898.88;;;11.91;77.81
7376;BME280;3728;42.266;24.944;2024-03-08T13:16:39;99890.47;;;12.03;77.94
7376;BME280;3728;42.266;24.944;2024-03-08T13:19:07;99891.88;;;12.09;78.60
7376;BME280;3728;42.266;24.944;2024-03-08T13:21:35;99881.47;;;12.26;78.27
7376;BME280;3728;42.266;24.944;2024-03-08T13:24:05;99897.66;;;12.98;73.83
7376;BME280;3728;42.266;24.944;2024-03-08T13:26:36;99889.84;;;13.15;70.84
7376;BME280;3728;42.266;24.944;2024-03-08T13:29:06;99893.53;;;13.06;72.39
7376;BME280;3728;42.266;24.944;2024-03-08T13:31:36;99888.69;;;12.90;73.12
7376;BME280;3728;42.266;24.944;2024-03-08T13:34:06;99896.03;;;13.19;71.01
7376;BME280;3728;42.266;24.944;2024-03-08T13:36:36;99888.84;;;12.94;73.06
7376;BME280;3728;42.266;24.944;2024-03-08T13:39:06;99893.25;;;12.68;74.47